sensor_id;sensor_type;location;lat;lon;timestamp;temperature;humidity
24436;DHT22;12616;52.470;13.436;2024-01-30T00:02:21;3.60;1.00
24436;DHT22;12616;52.470;13.436;2024-01-30T00:04:48;3.20;1.00
24436;DHT22;12616;52.470;13.436;2024-01-30T00:07:21;3.30;1.00
24436;DHT22;12616;52.470;13.436;2024-01-30T00:09:49;3.20;1.00
24436;DHT22;12616;52.470;13.436;2024-01-30T00:12:18;3.10;1.00
24436;DHT22;12616;52.470;13.436;2024-01-30T00:14:45;3.20;1.00
24436;DHT22;12616;52.470;13.436;2024-01-30T00:17:15;3.30;1.00
24436;DHT22;12616;52.470;13.436;2024-01-30T00:19:42;3.30;1.00
24436;DHT22;12616;52.470;13.436;2024-01-30T00:22:12;3.20;1.00
24436;DHT22;12616;52.470;13.436;2024-01-30T00:24:39;3.20;1.00
24436;DHT22;12616;52.470;13.436;2024-01-30T00:27:09;3.10;1.00
24436;DHT22;12616;52.470;13.436;2024-01-30T00:29:39;3.20;1.00
24436;DHT22;12616;52.470;13.436;2024-01-30T00:32:06;3.30;1.00
24436;DHT22;12616;52.470;13.436;2024-01-30T00:34:33;3.40;1.00
24436;DHT22;12616;52.470;13.436;2024-01-30T00:37:00;3.30;1.00
24436;DHT22;12616;52.470;13.436;2024-01-30T00:39:27;3.30;1.00
24436;DHT22;12616;52.470;13.436;2024-01-30T00:41:54;3.20;1.00
24436;DHT22;12616;52.470;13.436;2024-01-30T00:44:21;3.20;1.00
24436;DHT22;12616;52.470;13.436;2024-01-30T00:46:55;3.40;1.00
24436;DHT22;12616;52.470;13.436;2024-01-30T00:49:23;3.20;1.00
24436;DHT22;12616;52.470;13.436;2024-01-30T00:51:50;3.20;1.00
24436;DHT22;12616;52.470;13.436;2024-01-30T00:54:17;3.00;1.00
24436;DHT22;12616;52.470;13.436;2024-01-30T00:56:44;3.10;1.00
24436;DHT22;12616;52.470;13.436;2024-01-30T00:59:12;3.10;1.00
24436;DHT22;12616;52.470;13.436;2024-01-30T01:01:39;3.10;1.00
24436;DHT22;12616;52.470;13.436;2024-01-30T01:04:08;3.30;1.00
24436;DHT22;12616;52.470;13.436;2024-01-30T01:06:35;3.10;1.00
24436;DHT22;12616;52.470;13.436;2024-01-30T01:09:02;3.20;1.00
24436;DHT22;12616;52.470;13.436;2024-01-30T01:11:30;3.10;1.00
24436;DHT22;12616;52.470;13.436;2024-01-30T01:14:01;3.00;1.00
24436;DHT22;12616;52.470;13.436;2024-01-30T01:16:30;3.70;1.00
24436;DHT22;12616;52.470;13.436;2024-01-30T01:18:58;3.00;1.00
24436;DHT22;12616;52.470;13.436;2024-01-30T01:21:27;3.00;1.00
24436;DHT22;12616;52.470;13.436;2024-01-30T01:23:54;2.90;1.00
24436;DHT22;12616;52.470;13.436;2024-01-30T01:26:23;2.90;1.00
24436;DHT22;12616;52.470;13.436;2024-01-30T01:28:50;2.90;1.00
24436;DHT22;12616;52.470;13.436;2024-01-30T01:31:17;2.80;1.00
24436;DHT22;12616;52.470;13.436;2024-01-30T01:33:44;2.60;1.00
24436;DHT22;12616;52.470;13.436;2024-01-30T01:36:11;2.60;1.00
24436;DHT22;12616;52.470;13.436;2024-01-30T01:38:39;2.40;1.00
24436;DHT22;12616;52.470;13.436;2024-01-30T01:41:06;2.50;1.70
24436;DHT22;12616;52.470;13.436;2024-01-30T01:43:32;2.50;1.00
24436;DHT22;12616;52.470;13.436;2024-01-30T01:46:00;2.50;1.00
24436;DHT22;12616;52.470;13.436;2024-01-30T01:48:27;2.40;1.00
24436;DHT22;12616;52.470;13.436;2024-01-30T01:50:54;2.30;1.00
24436;DHT22;12616;52.470;13.436;2024-01-30T01:53:20;2.20;4.90
24436;DHT22;12616;52.470;13.436;2024-01-30T01:55:49;2.20;20.00
24436;DHT22;12616;52.470;13.436;2024-01-30T01:58:19;2.20;67.50
24436;DHT22;12616;52.470;13.436;2024-01-30T02:00:47;2.10;44.70
24436;DHT22;12616;52.470;13.436;2024-01-30T02:03:15;2.10;87.00
24436;DHT22;12616;52.470;13.436;2024-01-30T02:05:44;2.20;52.80
24436;DHT22;12616;52.470;13.436;2024-01-30T02:08:11;2.10;64.60
24436;DHT22;12616;52.470;13.436;2024-01-30T02:10:38;2.20;99.90
24436;DHT22;12616;52.470;13.436;2024-01-30T02:13:07;2.30;88.00
24436;DHT22;12616;52.470;13.436;2024-01-30T02:15:34;2.20;35.90
24436;DHT22;12616;52.470;13.436;2024-01-30T02:18:00;2.40;88.30
24436;DHT22;12616;52.470;13.436;2024-01-30T02:20:29;2.40;1.00
24436;DHT22;12616;52.470;13.436;2024-01-30T02:22:58;2.50;1.00
24436;DHT22;12616;52.470;13.436;2024-01-30T02:25:31;2.50;1.00
24436;DHT22;12616;52.470;13.436;2024-01-30T02:27:58;2.50;1.00
24436;DHT22;12616;52.470;13.436;2024-01-30T02:30:25;2.40;1.00
24436;DHT22;12616;52.470;13.436;2024-01-30T02:32:51;2.50;1.00
24436;DHT22;12616;52.470;13.436;2024-01-30T02:35:18;2.50;1.00
24436;DHT22;12616;52.470;13.436;2024-01-30T02:37:45;2.50;1.00
24436;DHT22;12616;52.470;13.436;2024-01-30T02:40:13;2.50;1.00
24436;DHT22;12616;52.470;13.436;2024-01-30T02:42:40;2.60;1.00
24436;DHT22;12616;52.470;13.436;2024-01-30T02:45:09;2.60;1.00
24436;DHT22;12616;52.470;13.436;2024-01-30T02:47:36;2.70;1.00
24436;DHT22;12616;52.470;13.436;2024-01-30T02:50:03;2.80;1.00
24436;DHT22;12616;52.470;13.436;2024-01-30T02:52:30;2.70;1.00
24436;DHT22;12616;52.470;13.436;2024-01-30T02:54:57;2.60;1.00
24436;DHT22;12616;52.470;13.436;2024-01-30T02:57:25;2.70;1.00
24436;DHT22;12616;52.470;13.436;2024-01-30T02:59:52;2.70;1.00
24436;DHT22;12616;52.470;13.436;2024-01-30T03:02:19;2.60;1.00
24436;DHT22;12616;52.470;13.436;2024-01-30T03:04:48;2.70;1.00
24436;DHT22;12616;52.470;13.436;2024-01-30T03:07:14;2.80;1.00
24436;DHT22;12616;52.470;13.436;2024-01-30T03:09:41;2.80;1.00
24436;DHT22;12616;52.470;13.436;2024-01-30T03:12:09;2.70;1.00
24436;DHT22;12616;52.470;13.436;2024-01-30T03:14:37;2.80;1.00
24436;DHT22;12616;52.470;13.436;2024-01-30T03:17:04;2.70;1.00
24436;DHT22;12616;52.470;13.436;2024-01-30T03:19:31;2.70;1.00
24436;DHT22;12616;52.470;13.436;2024-01-30T03:21:58;2.60;1.00
24436;DHT22;12616;52.470;13.436;2024-01-30T03:24:25;2.60;1.00
24436;DHT22;12616;52.470;13.436;2024-01-30T03:26:53;2.60;1.00
24436;DHT22;12616;52.470;13.436;2024-01-30T03:29:20;2.50;1.00
24436;DHT22;12616;52.470;13.436;2024-01-30T03:31:48;2.30;1.00
24436;DHT22;12616;52.470;13.436;2024-01-30T03:34:15;2.30;28.00
24436;DHT22;12616;52.470;13.436;2024-01-30T03:36:42;2.30;46.20
24436;DHT22;12616;52.470;13.436;2024-01-30T03:39:09;2.20;55.90
24436;DHT22;12616;52.470;13.436;2024-01-30T03:41:36;2.30;73.80
24436;DHT22;12616;52.470;13.436;2024-01-30T03:44:03;2.20;87.70
24436;DHT22;12616;52.470;13.436;2024-01-30T03:46:30;2.20;97.70
24436;DHT22;12616;52.470;13.436;2024-01-30T03:48:58;2.20;99.90
24436;DHT22;12616;52.470;13.436;2024-01-30T03:51:25;2.20;98.90
24436;DHT22;12616;52.470;13.436;2024-01-30T03:53:52;2.30;94.90
24436;DHT22;12616;52.470;13.436;2024-01-30T03:56:19;2.30;99.80
24436;DHT22;12616;52.470;13.436;2024-01-30T03:58:46;2.30;99.90
24436;DHT22;12616;52.470;13.436;2024-01-30T04:01:15;2.30;99.90
24436;DHT22;12616;52.470;13.436;2024-01-30T04:03:42;2.30;99.90
24436;DHT22;12616;52.470;13.436;2024-01-30T04:06:11;2.20;99.90
24436;DHT22;12616;52.470;13.436;2024-01-30T04:08:38;2.20;99.90
24436;DHT22;12616;52.470;13.436;2024-01-30T04:11:05;2.20;99.90
24436;DHT22;12616;52.470;13.436;2024-01-30T04:13:32;2.30;99.90
24436;DHT22;12616;52.470;13.436;2024-01-30T04:15:59;2.30;99.90
24436;DHT22;12616;52.470;13.436;2024-01-30T04:18:27;2.30;99.90
24436;DHT22;12616;52.470;13.436;2024-01-30T04:20:54;2.30;99.90
24436;DHT22;12616;52.470;13.436;2024-01-30T04:23:23;2.30;99.90
24436;DHT22;12616;52.470;13.436;2024-01-30T04:25:49;2.30;99.90
24436;DHT22;12616;52.470;13.436;2024-01-30T04:28:16;2.30;99.90
24436;DHT22;12616;52.470;13.436;2024-01-30T04:30:43;2.30;99.90
24436;DHT22;12616;52.470;13.436;2024-01-30T04:33:10;2.30;99.90
24436;DHT22;12616;52.470;13.436;2024-01-30T04:35:37;2.40;99.90
24436;DHT22;12616;52.470;13.436;2024-01-30T04:38:04;2.50;99.90
24436;DHT22;12616;52.470;13.436;2024-01-30T04:40:32;2.40;99.90
24436;DHT22;12616;52.470;13.436;2024-01-30T04:42:59;2.40;99.90
24436;DHT22;12616;52.470;13.436;2024-01-30T04:45:26;2.50;99.90
24436;DHT22;12616;52.470;13.436;2024-01-30T04:47:53;2.50;99.90
24436;DHT22;12616;52.470;13.436;2024-01-30T04:50:20;2.60;99.90
24436;DHT22;12616;52.470;13.436;2024-01-30T04:52:47;2.50;99.90
24436;DHT22;12616;52.470;13.436;2024-01-30T04:55:13;2.50;71.80
24436;DHT22;12616;52.470;13.436;2024-01-30T04:57:42;2.40;99.90
24436;DHT22;12616;52.470;13.436;2024-01-30T05:00:10;2.30;99.90
24436;DHT22;12616;52.470;13.436;2024-01-30T05:02:37;2.40;99.90
24436;DHT22;12616;52.470;13.436;2024-01-30T05:05:04;2.40;99.90
24436;DHT22;12616;52.470;13.436;2024-01-30T05:07:31;2.40;99.90
24436;DHT22;12616;52.470;13.436;2024-01-30T05:09:58;2.40;99.90
24436;DHT22;12616;52.470;13.436;2024-01-30T05:12:25;2.50;99.90
24436;DHT22;12616;52.470;13.436;2024-01-30T05:14:54;2.60;99.90
24436;DHT22;12616;52.470;13.436;2024-01-30T05:17:20;2.60;99.90
24436;DHT22;12616;52.470;13.436;2024-01-30T05:19:47;2.50;99.90
24436;DHT22;12616;52.470;13.436;2024-01-30T05:22:14;2.40;99.90
24436;DHT22;12616;52.470;13.436;2024-01-30T05:24:43;2.40;99.90
24436;DHT22;12616;52.470;13.436;2024-01-30T05:27:10;2.50;99.90
24436;DHT22;12616;52.470;13.436;2024-01-30T05:29:38;2.50;99.90
24436;DHT22;12616;52.470;13.436;2024-01-30T05:32:07;2.50;99.90
24436;DHT22;12616;52.470;13.436;2024-01-30T05:34:35;2.50;99.90
24436;DHT22;12616;52.470;13.436;2024-01-30T05:37:03;2.40;99.90
24436;DHT22;12616;52.470;13.436;2024-01-30T05:39:30;2.50;99.90
24436;DHT22;12616;52.470;13.436;2024-01-30T05:41:58;2.50;99.90
24436;DHT22;12616;52.470;13.436;2024-01-30T05:44:25;2.50;99.90
24436;DHT22;12616;52.470;13.436;2024-01-30T05:46:52;2.60;99.90
24436;DHT22;12616;52.470;13.436;2024-01-30T05:49:20;2.60;99.90
24436;DHT22;12616;52.470;13.436;2024-01-30T05:51:47;2.50;99.90
24436;DHT22;12616;52.470;13.436;2024-01-30T05:54:14;2.50;99.90
24436;DHT22;12616;52.470;13.436;2024-01-30T05:56:41;2.50;99.90
24436;DHT22;12616;52.470;13.436;2024-01-30T05:59:08;2.50;99.90
24436;DHT22;12616;52.470;13.436;2024-01-30T06:01:35;2.50;99.90
24436;DHT22;12616;52.470;13.436;2024-01-30T06:04:01;2.60;99.90
24436;DHT22;12616;52.470;13.436;2024-01-30T06:06:30;2.60;99.90
24436;DHT22;12616;52.470;13.436;2024-01-30T06:08:57;2.60;99.90
24436;DHT22;12616;52.470;13.436;2024-01-30T06:11:23;2.60;99.90
24436;DHT22;12616;52.470;13.436;2024-01-30T06:13:50;2.60;99.90
24436;DHT22;12616;52.470;13.436;2024-01-30T06:16:18;2.40;99.90
24436;DHT22;12616;52.470;13.436;2024-01-30T06:18:46;2.30;99.90
24436;DHT22;12616;52.470;13.436;2024-01-30T06:21:13;2.30;99.90
24436;DHT22;12616;52.470;13.436;2024-01-30T06:23:41;2.20;99.90
24436;DHT22;12616;52.470;13.436;2024-01-30T06:26:08;2.20;99.90
24436;DHT22;12616;52.470;13.436;2024-01-30T06:28:35;2.30;99.90
24436;DHT22;12616;52.470;13.436;2024-01-30T06:31:02;2.30;99.90
24436;DHT22;12616;52.470;13.436;2024-01-30T06:33:29;2.40;99.90
24436;DHT22;12616;52.470;13.436;2024-01-30T06:35:56;2.40;99.90
24436;DHT22;12616;52.470;13.436;2024-01-30T06:38:23;2.40;99.90
24436;DHT22;12616;52.470;13.436;2024-01-30T06:40:51;2.40;99.90
24436;DHT22;12616;52.470;13.436;2024-01-30T06:43:18;2.40;99.90
24436;DHT22;12616;52.470;13.436;2024-01-30T06:45:45;2.40;99.90
24436;DHT22;12616;52.470;13.436;2024-01-30T06:48:13;2.60;99.90
24436;DHT22;12616;52.470;13.436;2024-01-30T06:50:40;2.50;99.90
24436;DHT22;12616;52.470;13.436;2024-01-30T06:53:07;2.50;99.90
24436;DHT22;12616;52.470;13.436;2024-01-30T06:55:36;2.50;99.90
24436;DHT22;12616;52.470;13.436;2024-01-30T06:58:04;2.40;99.90
24436;DHT22;12616;52.470;13.436;2024-01-30T07:00:31;2.40;99.90
24436;DHT22;12616;52.470;13.436;2024-01-30T07:03:00;2.50;99.90
24436;DHT22;12616;52.470;13.436;2024-01-30T07:05:27;2.60;99.90
24436;DHT22;12616;52.470;13.436;2024-01-30T07:07:54;2.70;99.90
24436;DHT22;12616;52.470;13.436;2024-01-30T07:10:21;2.70;99.90
24436;DHT22;12616;52.470;13.436;2024-01-30T07:12:48;2.80;99.90
24436;DHT22;12616;52.470;13.436;2024-01-30T07:15:16;2.80;99.90
24436;DHT22;12616;52.470;13.436;2024-01-30T07:17:45;2.90;99.90
24436;DHT22;12616;52.470;13.436;2024-01-30T07:20:12;2.90;99.90
24436;DHT22;12616;52.470;13.436;2024-01-30T07:22:40;3.00;99.90
24436;DHT22;12616;52.470;13.436;2024-01-30T07:25:07;3.00;74.30
24436;DHT22;12616;52.470;13.436;2024-01-30T07:27:34;3.00;67.00
24436;DHT22;12616;52.470;13.436;2024-01-30T07:30:05;3.00;47.50
24436;DHT22;12616;52.470;13.436;2024-01-30T07:32:34;3.00;52.40
24436;DHT22;12616;52.470;13.436;2024-01-30T07:35:00;3.00;28.80
24436;DHT22;12616;52.470;13.436;2024-01-30T07:37:27;3.00;54.50
24436;DHT22;12616;52.470;13.436;2024-01-30T07:39:54;3.00;99.90
24436;DHT22;12616;52.470;13.436;2024-01-30T07:42:21;3.10;59.50
24436;DHT22;12616;52.470;13.436;2024-01-30T07:44:48;3.10;49.50
24436;DHT22;12616;52.470;13.436;2024-01-30T07:47:15;3.10;29.20
24436;DHT22;12616;52.470;13.436;2024-01-30T07:49:43;3.20;1.00
24436;DHT22;12616;52.470;13.436;2024-01-30T07:52:10;3.20;17.80
24436;DHT22;12616;52.470;13.436;2024-01-30T07:54:39;3.20;1.00
24436;DHT22;12616;52.470;13.436;2024-01-30T07:57:06;3.10;32.80
24436;DHT22;12616;52.470;13.436;2024-01-30T07:59:32;3.10;29.50
24436;DHT22;12616;52.470;13.436;2024-01-30T08:02:00;3.30;1.00
24436;DHT22;12616;52.470;13.436;2024-01-30T08:04:27;3.40;1.00
24436;DHT22;12616;52.470;13.436;2024-01-30T08:06:55;3.40;1.00
24436;DHT22;12616;52.470;13.436;2024-01-30T08:09:22;3.40;1.00
24436;DHT22;12616;52.470;13.436;2024-01-30T08:11:49;3.50;1.00
24436;DHT22;12616;52.470;13.436;2024-01-30T08:14:16;3.50;1.00
24436;DHT22;12616;52.470;13.436;2024-01-30T08:16:46;3.60;1.00
24436;DHT22;12616;52.470;13.436;2024-01-30T08:19:14;3.60;1.00
24436;DHT22;12616;52.470;13.436;2024-01-30T08:21:41;3.60;1.00
24436;DHT22;12616;52.470;13.436;2024-01-30T08:24:11;3.60;1.00
24436;DHT22;12616;52.470;13.436;2024-01-30T08:26:41;3.50;1.00
24436;DHT22;12616;52.470;13.436;2024-01-30T08:29:12;3.70;1.00
24436;DHT22;12616;52.470;13.436;2024-01-30T08:31:42;3.70;1.00
24436;DHT22;12616;52.470;13.436;2024-01-30T08:34:10;3.70;1.00
24436;DHT22;12616;52.470;13.436;2024-01-30T08:36:41;3.70;1.00
24436;DHT22;12616;52.470;13.436;2024-01-30T08:39:09;3.80;1.00
24436;DHT22;12616;52.470;13.436;2024-01-30T08:41:39;3.70;1.00
24436;DHT22;12616;52.470;13.436;2024-01-30T08:44:06;3.70;1.00
24436;DHT22;12616;52.470;13.436;2024-01-30T08:46:36;4.30;1.00
24436;DHT22;12616;52.470;13.436;2024-01-30T08:49:10;3.90;1.00
24436;DHT22;12616;52.470;13.436;2024-01-30T08:51:38;4.00;1.00
24436;DHT22;12616;52.470;13.436;2024-01-30T08:54:05;4.20;1.00
24436;DHT22;12616;52.470;13.436;2024-01-30T08:56:34;4.20;1.00
24436;DHT22;12616;52.470;13.436;2024-01-30T08:59:01;4.20;1.00
24436;DHT22;12616;52.470;13.436;2024-01-30T09:01:28;4.40;1.00
24436;DHT22;12616;52.470;13.436;2024-01-30T09:03:55;4.40;1.00
24436;DHT22;12616;52.470;13.436;2024-01-30T09:06:25;4.50;1.00
24436;DHT22;12616;52.470;13.436;2024-01-30T09:08:53;4.50;1.00
24436;DHT22;12616;52.470;13.436;2024-01-30T09:11:23;4.80;1.00
24436;DHT22;12616;52.470;13.436;2024-01-30T09:13:55;4.50;1.00
24436;DHT22;12616;52.470;13.436;2024-01-30T09:16:22;4.50;1.00
24436;DHT22;12616;52.470;13.436;2024-01-30T09:18:49;4.70;1.00
24436;DHT22;12616;52.470;13.436;2024-01-30T09:21:16;4.60;1.00
24436;DHT22;12616;52.470;13.436;2024-01-30T09:23:43;4.60;1.00
24436;DHT22;12616;52.470;13.436;2024-01-30T09:26:11;4.60;1.00
24436;DHT22;12616;52.470;13.436;2024-01-30T09:28:42;4.60;1.00
24436;DHT22;12616;52.470;13.436;2024-01-30T09:31:14;4.70;1.00
24436;DHT22;12616;52.470;13.436;2024-01-30T09:33:44;4.60;1.00
24436;DHT22;12616;52.470;13.436;2024-01-30T09:36:15;4.70;1.00
24436;DHT22;12616;52.470;13.436;2024-01-30T09:38:48;4.70;1.00
24436;DHT22;12616;52.470;13.436;2024-01-30T09:41:16;4.80;1.00
24436;DHT22;12616;52.470;13.436;2024-01-30T09:43:47;4.80;1.00
24436;DHT22;12616;52.470;13.436;2024-01-30T09:46:17;4.90;1.00
24436;DHT22;12616;52.470;13.436;2024-01-30T09:48:46;4.90;1.00
24436;DHT22;12616;52.470;13.436;2024-01-30T09:51:14;5.00;1.00
24436;DHT22;12616;52.470;13.436;2024-01-30T09:53:42;5.10;1.00
24436;DHT22;12616;52.470;13.436;2024-01-30T09:56:10;5.10;1.00
24436;DHT22;12616;52.470;13.436;2024-01-30T09:58:37;5.30;1.00
24436;DHT22;12616;52.470;13.436;2024-01-30T10:01:30;5.30;1.00
24436;DHT22;12616;52.470;13.436;2024-01-30T10:04:16;5.30;1.00
24436;DHT22;12616;52.470;13.436;2024-01-30T10:06:49;5.40;1.00
24436;DHT22;12616;52.470;13.436;2024-01-30T10:09:20;5.50;1.00
24436;DHT22;12616;52.470;13.436;2024-01-30T10:11:49;5.60;1.00
24436;DHT22;12616;52.470;13.436;2024-01-30T10:14:25;5.70;1.00
24436;DHT22;12616;52.470;13.436;2024-01-30T10:16:58;5.80;1.00
24436;DHT22;12616;52.470;13.436;2024-01-30T10:19:27;5.80;1.00
24436;DHT22;12616;52.470;13.436;2024-01-30T10:21:57;5.70;1.00
24436;DHT22;12616;52.470;13.436;2024-01-30T10:24:25;5.90;1.00
24436;DHT22;12616;52.470;13.436;2024-01-30T10:26:57;6.00;1.00
24436;DHT22;12616;52.470;13.436;2024-01-30T10:29:24;6.00;1.00
24436;DHT22;12616;52.470;13.436;2024-01-30T10:32:03;6.10;1.00
24436;DHT22;12616;52.470;13.436;2024-01-30T10:34:34;6.20;1.00
24436;DHT22;12616;52.470;13.436;2024-01-30T10:37:10;6.20;1.00
24436;DHT22;12616;52.470;13.436;2024-01-30T10:40:02;6.50;1.00
24436;DHT22;12616;52.470;13.436;2024-01-30T10:45:22;6.30;1.00
24436;DHT22;12616;52.470;13.436;2024-01-30T10:48:12;6.30;1.00
24436;DHT22;12616;52.470;13.436;2024-01-30T10:51:29;6.40;1.00
24436;DHT22;12616;52.470;13.436;2024-01-30T10:53:56;6.40;1.00
24436;DHT22;12616;52.470;13.436;2024-01-30T10:56:31;6.50;1.00
24436;DHT22;12616;52.470;13.436;2024-01-30T10:59:15;6.50;1.00
24436;DHT22;12616;52.470;13.436;2024-01-30T11:01:56;6.50;1.00
24436;DHT22;12616;52.470;13.436;2024-01-30T11:04:42;6.60;1.00
24436;DHT22;12616;52.470;13.436;2024-01-30T11:07:35;6.60;1.00
24436;DHT22;12616;52.470;13.436;2024-01-30T11:10:14;6.60;1.00
24436;DHT22;12616;52.470;13.436;2024-01-30T11:13:09;6.70;1.00
24436;DHT22;12616;52.470;13.436;2024-01-30T11:15:51;6.70;1.00
24436;DHT22;12616;52.470;13.436;2024-01-30T11:18:27;6.80;1.00
24436;DHT22;12616;52.470;13.436;2024-01-30T11:20:59;6.70;1.00
24436;DHT22;12616;52.470;13.436;2024-01-30T11:23:36;6.70;1.00
24436;DHT22;12616;52.470;13.436;2024-01-30T11:26:14;6.90;1.00
24436;DHT22;12616;52.470;13.436;2024-01-30T11:28:52;6.80;1.00
24436;DHT22;12616;52.470;13.436;2024-01-30T11:31:42;6.80;1.00
24436;DHT22;12616;52.470;13.436;2024-01-30T11:34:29;6.80;1.00
24436;DHT22;12616;52.470;13.436;2024-01-30T11:37:10;6.80;1.00
24436;DHT22;12616;52.470;13.436;2024-01-30T11:40:05;6.80;1.00
24436;DHT22;12616;52.470;13.436;2024-01-30T11:42:42;7.00;1.00
24436;DHT22;12616;52.470;13.436;2024-01-30T11:45:22;6.90;1.00
24436;DHT22;12616;52.470;13.436;2024-01-30T11:48:07;7.00;1.00
24436;DHT22;12616;52.470;13.436;2024-01-30T11:51:24;7.00;99.90
24436;DHT22;12616;52.470;13.436;2024-01-30T11:54:01;7.10;1.00
24436;DHT22;12616;52.470;13.436;2024-01-30T11:56:50;7.20;1.00
24436;DHT22;12616;52.470;13.436;2024-01-30T11:59:27;7.40;1.00
24436;DHT22;12616;52.470;13.436;2024-01-30T12:02:18;7.40;1.00
24436;DHT22;12616;52.470;13.436;2024-01-30T12:04:54;7.50;99.90
24436;DHT22;12616;52.470;13.436;2024-01-30T12:07:38;7.60;1.00
24436;DHT22;12616;52.470;13.436;2024-01-30T12:10:31;7.60;1.00
24436;DHT22;12616;52.470;13.436;2024-01-30T12:13:32;7.70;1.00
24436;DHT22;12616;52.470;13.436;2024-01-30T12:16:15;7.60;99.90
24436;DHT22;12616;52.470;13.436;2024-01-30T12:18:46;7.70;99.90
24436;DHT22;12616;52.470;13.436;2024-01-30T12:21:20;7.60;99.90
24436;DHT22;12616;52.470;13.436;2024-01-30T12:24:05;7.90;99.90
24436;DHT22;12616;52.470;13.436;2024-01-30T12:26:48;7.80;1.00
24436;DHT22;12616;52.470;13.436;2024-01-30T12:29:33;7.80;1.00
24436;DHT22;12616;52.470;13.436;2024-01-30T12:32:14;7.80;1.00
24436;DHT22;12616;52.470;13.436;2024-01-30T12:34:41;7.80;1.00
24436;DHT22;12616;52.470;13.436;2024-01-30T12:37:12;7.80;1.00
24436;DHT22;12616;52.470;13.436;2024-01-30T12:40:01;7.70;1.00
24436;DHT22;12616;52.470;13.436;2024-01-30T12:45:42;7.70;1.00
24436;DHT22;12616;52.470;13.436;2024-01-30T12:48:09;7.70;1.00
24436;DHT22;12616;52.470;13.436;2024-01-30T12:50:36;7.50;1.00
24436;DHT22;12616;52.470;13.436;2024-01-30T12:53:04;7.70;1.00
24436;DHT22;12616;52.470;13.436;2024-01-30T12:55:31;8.00;1.00
24436;DHT22;12616;52.470;13.436;2024-01-30T12:58:00;7.70;1.00
24436;DHT22;12616;52.470;13.436;2024-01-30T13:00:28;7.80;1.00
24436;DHT22;12616;52.470;13.436;2024-01-30T13:02:56;7.80;1.00
24436;DHT22;12616;52.470;13.436;2024-01-30T13:05:29;7.80;1.00
24436;DHT22;12616;52.470;13.436;2024-01-30T13:08:01;7.90;1.00
24436;DHT22;12616;52.470;13.436;2024-01-30T13:10:32;7.80;1.00
24436;DHT22;12616;52.470;13.436;2024-01-30T13:13:03;7.80;1.00
24436;DHT22;12616;52.470;13.436;2024-01-30T13:15:31;7.80;1.00
24436;DHT22;12616;52.470;13.436;2024-01-30T13:18:08;7.90;1.00
24436;DHT22;12616;52.470;13.436;2024-01-30T13:20:36;7.90;1.00
24436;DHT22;12616;52.470;13.436;2024-01-30T13:23:07;8.10;1.00
24436;DHT22;12616;52.470;13.436;2024-01-30T13:25:46;7.90;1.00
24436;DHT22;12616;52.470;13.436;2024-01-30T13:28:22;7.90;1.00
24436;DHT22;12616;52.470;13.436;2024-01-30T13:30:48;7.90;1.00
24436;DHT22;12616;52.470;13.436;2024-01-30T13:33:15;8.00;1.00
24436;DHT22;12616;52.470;13.436;2024-01-30T13:35:41;8.00;1.00
24436;DHT22;12616;52.470;13.436;2024-01-30T13:38:08;8.10;1.00
24436;DHT22;12616;52.470;13.436;2024-01-30T13:40:35;8.10;1.00
24436;DHT22;12616;52.470;13.436;2024-01-30T13:43:03;8.10;1.00
24436;DHT22;12616;52.470;13.436;2024-01-30T13:45:31;8.10;1.00
24436;DHT22;12616;52.470;13.436;2024-01-30T13:47:58;8.10;1.00
24436;DHT22;12616;52.470;13.436;2024-01-30T13:50:25;8.20;1.00
24436;DHT22;12616;52.470;13.436;2024-01-30T13:52:52;8.30;1.00
24436;DHT22;12616;52.470;13.436;2024-01-30T13:55:19;8.30;1.00
24436;DHT22;12616;52.470;13.436;2024-01-30T13:57:45;8.30;1.00
24436;DHT22;12616;52.470;13.436;2024-01-30T14:00:13;8.30;1.00
24436;DHT22;12616;52.470;13.436;2024-01-30T14:02:43;8.30;1.00
24436;DHT22;12616;52.470;13.436;2024-01-30T14:05:09;8.30;1.00
24436;DHT22;12616;52.470;13.436;2024-01-30T14:07:37;8.30;1.00
24436;DHT22;12616;52.470;13.436;2024-01-30T14:10:06;8.30;1.00
24436;DHT22;12616;52.470;13.436;2024-01-30T14:12:33;8.20;1.00
24436;DHT22;12616;52.470;13.436;2024-01-30T14:15:00;8.20;1.00
24436;DHT22;12616;52.470;13.436;2024-01-30T14:17:27;8.20;1.00
24436;DHT22;12616;52.470;13.436;2024-01-30T14:19:55;8.20;1.00
24436;DHT22;12616;52.470;13.436;2024-01-30T14:22:22;8.20;1.00
24436;DHT22;12616;52.470;13.436;2024-01-30T14:24:49;8.20;1.00
24436;DHT22;12616;52.470;13.436;2024-01-30T14:27:15;8.30;1.00
24436;DHT22;12616;52.470;13.436;2024-01-30T14:29:42;8.20;5.30
24436;DHT22;12616;52.470;13.436;2024-01-30T14:32:09;8.20;1.00
24436;DHT22;12616;52.470;13.436;2024-01-30T14:34:36;8.20;1.00
24436;DHT22;12616;52.470;13.436;2024-01-30T14:37:04;8.20;1.00
24436;DHT22;12616;52.470;13.436;2024-01-30T14:39:31;8.20;1.00
24436;DHT22;12616;52.470;13.436;2024-01-30T14:41:59;8.20;1.00
24436;DHT22;12616;52.470;13.436;2024-01-30T14:44:26;8.20;1.00
24436;DHT22;12616;52.470;13.436;2024-01-30T14:46:53;8.10;1.00
24436;DHT22;12616;52.470;13.436;2024-01-30T14:49:20;8.10;1.00
24436;DHT22;12616;52.470;13.436;2024-01-30T14:51:47;8.10;1.00
24436;DHT22;12616;52.470;13.436;2024-01-30T14:54:16;8.10;1.00
24436;DHT22;12616;52.470;13.436;2024-01-30T14:56:44;8.10;1.00
24436;DHT22;12616;52.470;13.436;2024-01-30T14:59:11;8.10;1.00
24436;DHT22;12616;52.470;13.436;2024-01-30T15:01:38;8.10;1.00
24436;DHT22;12616;52.470;13.436;2024-01-30T15:04:05;8.10;1.00
24436;DHT22;12616;52.470;13.436;2024-01-30T15:06:32;8.00;1.00
24436;DHT22;12616;52.470;13.436;2024-01-30T15:08:59;8.00;1.00
24436;DHT22;12616;52.470;13.436;2024-01-30T15:11:27;8.00;1.00
24436;DHT22;12616;52.470;13.436;2024-01-30T15:13:54;7.90;1.00
24436;DHT22;12616;52.470;13.436;2024-01-30T15:16:21;7.90;1.00
24436;DHT22;12616;52.470;13.436;2024-01-30T15:18:48;7.90;1.00
24436;DHT22;12616;52.470;13.436;2024-01-30T15:21:15;7.80;1.00
24436;DHT22;12616;52.470;13.436;2024-01-30T15:23:45;7.80;1.00
24436;DHT22;12616;52.470;13.436;2024-01-30T15:26:13;7.80;1.00
24436;DHT22;12616;52.470;13.436;2024-01-30T15:28:41;7.70;1.00
24436;DHT22;12616;52.470;13.436;2024-01-30T15:31:08;7.70;1.00
24436;DHT22;12616;52.470;13.436;2024-01-30T15:33:35;7.60;1.00
24436;DHT22;12616;52.470;13.436;2024-01-30T15:36:03;7.60;1.00
24436;DHT22;12616;52.470;13.436;2024-01-30T15:38:30;7.60;1.00
24436;DHT22;12616;52.470;13.436;2024-01-30T15:40:58;7.60;1.00
24436;DHT22;12616;52.470;13.436;2024-01-30T15:43:26;7.60;1.00
24436;DHT22;12616;52.470;13.436;2024-01-30T15:45:54;7.60;1.00
24436;DHT22;12616;52.470;13.436;2024-01-30T15:48:21;7.60;1.00
24436;DHT22;12616;52.470;13.436;2024-01-30T15:50:48;7.60;1.00
24436;DHT22;12616;52.470;13.436;2024-01-30T15:53:15;7.50;1.00
24436;DHT22;12616;52.470;13.436;2024-01-30T15:55:42;7.40;1.00
24436;DHT22;12616;52.470;13.436;2024-01-30T15:58:08;7.40;1.00
24436;DHT22;12616;52.470;13.436;2024-01-30T16:00:35;7.40;1.00
24436;DHT22;12616;52.470;13.436;2024-01-30T16:03:04;7.30;1.00